Terminal Aerodrome Forecast
Issued by NWS Sioux Falls, SD

Home | Current Version | Previous Version | Text Only | Print | Product List | Glossary Off
Versions: 1 2 3 4 5 6 7 8 9 10 11 12 13 14 15 16 17 18 19 20 21 22 23 24 25 26

578
FTUS43 KFSD 301722 AAA
TAFSUX
TAF AMD
KSUX 301722Z 3017/0118 10007KT P6SM FEW250
     FM010000 09005KT P6SM SKC
     FM011000 VRB03KT P6SM BKN025
     FM011200 00000KT P6SM BKN015
     FM011600 VRB03KT P6SM BKN020=

USA.gov is the U.S. government's official web portal to all federal, state and local government web resources and services.